Time;durP1;ratioP1;P1;durP2;ratioP2;P2;SDS_P1;SDS_P2;PMS_P1;PMS_P2;Temp;Humidity;BMP_temperature;BMP_pressure;BME280_temperature;BME280_humidity;BME280_pressure;Samples;Min_cycle;Max_cycle;Signal;HPM_P1;HPM_P2
2021/10/08 00:00:29;;;;;;;14.20;5.30;;;;;;;8.38;35.80;101989.46;117351;1185;23820;-48
2021/10/08 00:02:57;;;;;;;14.80;4.90;;;;;;;8.42;35.80;101987.25;117338;1182;23638;-49
2021/10/08 00:05:25;;;;;;;16.70;5.10;;;;;;;8.45;35.64;101985.08;117267;1185;23544;-49
2021/10/08 00:07:53;;;;;;;13.80;5.50;;;;;;;8.47;35.68;101982.48;117336;1182;23438;-49
2021/10/08 00:10:22;;;;;;;18.90;5.20;;;;;;;8.47;35.97;101985.98;117328;1185;23625;-49
2021/10/08 00:13:10;;;;;;;10.70;4.90;;;;;;;8.48;35.77;101982.86;117302;1189;22919;-49
2021/10/08 00:15:38;;;;;;;14.80;4.40;;;;;;;8.48;36.06;101982.85;117381;1184;23554;-49
2021/10/08 00:18:07;;;;;;;10.90;4.60;;;;;;;8.49;35.74;101979.25;117283;1185;23544;-50
2021/10/08 00:20:36;;;;;;;11.00;4.70;;;;;;;8.49;35.96;101979.41;117280;1185;24139;-60
2021/10/08 00:23:04;;;;;;;15.30;4.90;;;;;;;8.50;35.95;101979.95;117269;1185;21917;-49
2021/10/08 00:25:33;;;;;;;12.00;5.10;;;;;;;8.52;35.74;101977.53;117290;1185;23557;-49
2021/10/08 00:28:01;;;;;;;19.40;5.20;;;;;;;8.52;35.81;101978.24;117345;1185;23545;-49
2021/10/08 00:30:31;;;;;;;9.20;4.70;;;;;;;8.51;36.02;101978.39;117317;1185;23443;-49
2021/10/08 00:32:59;;;;;;;18.50;6.40;;;;;;;8.50;35.99;101979.26;117270;1180;21851;-49
2021/10/08 00:35:28;;;;;;;17.60;5.20;;;;;;;8.50;35.92;101980.48;117310;1185;23544;-49
2021/10/08 00:37:56;;;;;;;10.70;4.50;;;;;;;8.49;35.94;101979.23;117295;1185;21909;-49
2021/10/08 00:40:25;;;;;;;12.10;4.80;;;;;;;8.49;35.97;101984.31;117302;1186;21847;-49
2021/10/08 00:42:53;;;;;;;14.30;6.40;;;;;;;8.48;35.92;101982.71;117289;1185;23586;-49
2021/10/08 00:45:21;;;;;;;12.10;5.70;;;;;;;8.47;36.01;101982.66;117102;1181;21859;-49
2021/10/08 00:47:56;;;;;;;13.20;6.10;;;;;;;8.46;35.90;101984.38;117234;1186;23445;-50
2021/10/08 00:50:25;;;;;;;13.30;4.90;;;;;;;8.46;35.93;101987.55;117299;1185;23016;-49
2021/10/08 00:52:53;;;;;;;12.80;5.60;;;;;;;8.44;35.87;101988.02;117337;1185;22812;-49
2021/10/08 00:55:22;;;;;;;13.20;4.80;;;;;;;8.43;36.14;101986.41;117363;1186;22918;-49
2021/10/08 00:57:50;;;;;;;13.10;4.80;;;;;;;8.43;36.04;101986.05;117339;1185;23630;-49
2021/10/08 01:00:18;;;;;;;15.70;4.90;;;;;;;8.44;36.02;101983.64;117321;1186;23553;-49
2021/10/08 01:02:46;;;;;;;12.50;4.40;;;;;;;8.43;35.99;101986.24;117264;1185;23541;-49
2021/10/08 01:05:14;;;;;;;11.60;4.60;;;;;;;8.43;35.99;101988.16;117260;1185;21864;-49
2021/10/08 01:07:43;;;;;;;9.90;4.70;;;;;;;8.42;36.07;101988.84;117363;1185;23576;-49
2021/10/08 01:10:11;;;;;;;13.80;4.30;;;;;;;8.41;36.08;101991.27;117282;1189;21918;-49
2021/10/08 01:12:40;;;;;;;13.00;5.10;;;;;;;8.40;36.02;101995.08;117321;1186;22940;-49
2021/10/08 01:15:09;;;;;;;9.20;3.80;;;;;;;8.40;36.04;102001.91;117248;1186;22098;-49
2021/10/08 01:17:37;;;;;;;15.20;5.00;;;;;;;8.38;36.05;102002.23;117308;1183;23548;-49
2021/10/08 01:20:07;;;;;;;12.60;4.20;;;;;;;8.35;35.95;102007.40;117282;1186;23542;-49
2021/10/08 01:22:37;;;;;;;12.90;4.50;;;;;;;8.30;36.10;102002.74;117314;1185;21859;-48
2021/10/08 01:25:07;;;;;;;9.70;4.40;;;;;;;8.28;35.97;102007.79;117270;1186;23674;-48
2021/10/08 01:27:36;;;;;;;13.00;4.80;;;;;;;8.27;35.80;102007.59;117382;1186;21861;-48
2021/10/08 01:30:07;;;;;;;14.60;4.70;;;;;;;8.23;35.98;102011.33;117367;1185;21854;-48
2021/10/08 01:32:38;;;;;;;9.70;4.80;;;;;;;8.20;35.99;102009.15;117319;1183;23547;-48
2021/10/08 01:35:07;;;;;;;11.80;4.80;;;;;;;8.16;35.97;102007.85;117380;1182;23582;-48
2021/10/08 01:37:35;;;;;;;11.30;4.70;;;;;;;8.12;35.87;102013.36;117395;1185;23466;-49
2021/10/08 01:40:04;;;;;;;9.30;4.20;;;;;;;8.09;35.90;102014.16;117290;1185;21857;-49
2021/10/08 01:42:32;;;;;;;12.50;4.10;;;;;;;8.05;36.08;102014.73;117313;1185;23567;-51
2021/10/08 01:45:00;;;;;;;10.00;4.80;;;;;;;8.02;35.97;102015.20;117380;1182;21865;-49
2021/10/08 01:47:29;;;;;;;18.10;5.20;;;;;;;8.00;35.98;102007.08;117302;1185;21866;-49
2021/10/08 01:49:57;;;;;;;22.60;5.40;;;;;;;7.98;36.13;102009.50;117245;1189;22623;-50
2021/10/08 01:52:25;;;;;;;10.00;4.70;;;;;;;7.96;36.03;102010.86;117312;1185;21867;-49
2021/10/08 01:54:53;;;;;;;10.10;4.40;;;;;;;7.94;36.06;102014.48;117329;1185;21900;-49
2021/10/08 01:57:24;;;;;;;10.10;4.50;;;;;;;7.94;35.98;102016.92;117308;1183;22822;-49
2021/10/08 01:59:53;;;;;;;10.00;4.80;;;;;;;7.93;35.91;102014.97;117362;1185;21856;-49
2021/10/08 02:02:22;;;;;;;11.20;4.70;;;;;;;7.94;35.88;102022.00;117303;1186;21856;-49
2021/10/08 02:04:51;;;;;;;11.20;4.50;;;;;;;7.90;35.85;102020.48;117344;1182;23542;-49
2021/10/08 02:07:19;;;;;;;10.70;4.80;;;;;;;7.86;36.07;102019.17;117283;1189;21857;-48
2021/10/08 02:09:48;;;;;;;11.50;5.20;;;;;;;7.85;35.90;102017.76;117313;1183;23541;-49
2021/10/08 02:12:16;;;;;;;13.50;4.50;;;;;;;7.89;35.93;102019.27;117353;1182;23576;-49
2021/10/08 02:14:45;;;;;;;10.00;4.60;;;;;;;7.81;35.81;102022.73;117355;1186;23544;-49
2021/10/08 02:17:13;;;;;;;15.30;5.10;;;;;;;7.69;36.05;102025.04;117291;1183;23625;-49
2021/10/08 02:19:41;;;;;;;15.90;6.00;;;;;;;7.62;35.96;102022.75;117295;1189;21865;-49
2021/10/08 02:22:10;;;;;;;11.20;4.70;;;;;;;7.56;36.06;102022.44;117323;1183;21859;-50
2021/10/08 02:24:38;;;;;;;15.70;4.50;;;;;;;7.52;35.95;102020.91;117328;1189;23545;-49
2021/10/08 02:27:06;;;;;;;10.20;4.50;;;;;;;7.51;35.88;102025.96;117332;1182;23543;-49
2021/10/08 02:29:34;;;;;;;12.10;4.80;;;;;;;7.48;35.88;102026.41;117325;1186;23557;-49
2021/10/08 02:32:03;;;;;;;13.20;4.60;;;;;;;7.39;36.07;102020.76;117253;1186;21855;-49
2021/10/08 02:34:31;;;;;;;9.20;4.50;;;;;;;7.32;36.08;102022.13;117355;1183;21860;-49
2021/10/08 02:36:59;;;;;;;8.20;4.10;;;;;;;7.28;36.22;102018.89;117314;1186;22651;-48
2021/10/08 02:39:28;;;;;;;14.30;4.20;;;;;;;7.27;36.20;102019.92;117293;1185;23545;-48
2021/10/08 02:41:56;;;;;;;9.00;4.60;;;;;;;7.26;36.34;102016.05;117275;1180;21860;-48
2021/10/08 02:44:24;;;;;;;8.60;3.50;;;;;;;7.27;36.24;102022.52;117325;1186;23810;-48
2021/10/08 02:46:52;;;;;;;8.80;4.40;;;;;;;7.25;36.10;102021.79;117275;1185;23557;-48
2021/10/08 02:49:21;;;;;;;11.60;4.70;;;;;;;7.26;36.54;102018.48;117234;1185;23590;-48
2021/10/08 02:51:50;;;;;;;16.10;4.30;;;;;;;7.26;36.38;102014.29;117241;1183;21919;-48
2021/10/08 02:54:18;;;;;;;11.50;4.40;;;;;;;7.27;36.49;102012.05;117293;1182;22928;-49
2021/10/08 02:56:47;;;;;;;10.90;4.80;;;;;;;7.30;36.37;102011.79;117325;1185;23823;-48
2021/10/08 02:59:15;;;;;;;11.00;4.50;;;;;;;7.26;36.13;102010.29;117293;1185;23537;-48
2021/10/08 03:01:43;;;;;;;11.20;4.20;;;;;;;7.26;36.43;102012.02;117327;1185;23485;-48
2021/10/08 03:04:11;;;;;;;14.90;4.60;;;;;;;7.26;36.45;102015.35;117329;1185;23554;-48
2021/10/08 03:06:40;;;;;;;10.60;5.20;;;;;;;7.26;36.43;102015.52;117315;1183;23572;-49
2021/10/08 03:09:08;;;;;;;12.20;5.00;;;;;;;7.27;36.32;102015.03;117338;1183;23541;-49
2021/10/08 03:11:36;;;;;;;10.30;4.30;;;;;;;7.27;36.52;102015.03;117242;1185;21857;-49
2021/10/08 03:14:09;;;;;;;13.60;3.90;;;;;;;7.27;36.35;102015.38;117245;1186;23543;-48
2021/10/08 03:16:37;;;;;;;12.20;3.90;;;;;;;7.26;36.51;102015.36;117287;1185;23545;-49
2021/10/08 03:19:05;;;;;;;11.00;3.50;;;;;;;7.28;36.54;102015.05;117286;1182;21847;-60
2021/10/08 03:21:34;;;;;;;8.60;4.60;;;;;;;7.27;36.36;102013.98;117312;1185;23804;-59
2021/10/08 03:24:02;;;;;;;12.10;4.70;;;;;;;7.26;36.49;102015.50;117309;1186;21846;-59
2021/10/08 03:26:30;;;;;;;11.40;4.50;;;;;;;7.26;36.54;102023.91;117286;1185;21858;-60
2021/10/08 03:28:58;;;;;;;10.50;4.10;;;;;;;7.25;36.52;102023.36;117299;1180;21847;-59
2021/10/08 03:31:27;;;;;;;9.20;4.20;;;;;;;7.26;36.40;102021.82;117318;1182;21940;-60
2021/10/08 03:33:56;;;;;;;11.70;3.70;;;;;;;7.26;36.32;102020.92;117261;1186;21862;-59
2021/10/08 03:36:28;;;;;;;9.70;4.40;;;;;;;7.25;36.44;102021.44;117269;1186;23566;-60
2021/10/08 03:38:57;;;;;;;13.80;5.00;;;;;;;7.25;36.64;102024.04;117368;1182;22979;-59
2021/10/08 03:41:26;;;;;;;12.90;4.30;;;;;;;7.24;36.75;102024.20;117353;1185;22001;-60
2021/10/08 03:43:56;;;;;;;8.50;3.90;;;;;;;7.24;36.60;102023.49;117297;1186;21859;-59
2021/10/08 03:46:26;;;;;;;14.60;4.50;;;;;;;7.24;36.57;102025.06;117317;1185;21898;-59
2021/10/08 03:51:35;;;;;;;17.50;4.60;;;;;;;7.23;36.59;102027.13;117337;1183;23568;-59
2021/10/08 03:54:04;;;;;;;7.30;3.50;;;;;;;7.22;36.48;102032.00;117227;1186;21858;-60
2021/10/08 03:56:32;;;;;;;12.00;4.10;;;;;;;7.22;36.76;102032.70;117306;1186;23439;-60
2021/10/08 03:59:00;;;;;;;13.50;3.80;;;;;;;7.23;36.91;102029.41;117309;1185;23822;-61
2021/10/08 04:01:30;;;;;;;11.10;4.40;;;;;;;7.25;36.76;102028.08;117286;1186;23565;-61
2021/10/08 04:03:58;;;;;;;9.60;4.40;;;;;;;7.27;36.72;102026.73;117313;1185;23601;-59
2021/10/08 04:06:26;;;;;;;13.80;5.10;;;;;;;7.28;36.82;102027.62;117303;1185;23471;-60
2021/10/08 04:08:54;;;;;;;13.40;4.40;;;;;;;7.28;36.73;102028.67;117268;1183;21845;-60
2021/10/08 04:11:23;;;;;;;11.80;4.10;;;;;;;7.28;36.96;102027.98;118547;1185;23545;-60
2021/10/08 04:13:52;;;;;;;13.40;4.40;;;;;;;7.30;36.77;102031.33;117283;1185;23596;-59
2021/10/08 04:16:21;;;;;;;11.10;4.50;;;;;;;7.32;36.68;102035.06;117293;1185;21857;-60
2021/10/08 04:18:49;;;;;;;12.40;4.80;;;;;;;7.37;36.68;102035.01;117265;1188;21862;-60
2021/10/08 04:21:17;;;;;;;14.00;4.30;;;;;;;7.40;36.61;102039.30;117292;1186;21845;-61
2021/10/08 04:23:45;;;;;;;12.50;4.40;;;;;;;7.44;36.80;102037.48;117277;1186;21867;-61
2021/10/08 04:26:13;;;;;;;14.30;5.90;;;;;;;7.48;36.88;102036.54;117338;1185;23557;-59
2021/10/08 04:28:42;;;;;;;11.70;5.00;;;;;;;7.51;36.79;102034.00;117295;1186;23441;-59
2021/10/08 04:31:10;;;;;;;24.70;5.30;;;;;;;7.53;36.84;102030.03;117327;1185;23810;-60
2021/10/08 04:33:39;;;;;;;14.70;5.00;;;;;;;7.55;36.95;102030.43;117302;1186;23557;-60
2021/10/08 04:36:07;;;;;;;18.90;5.70;;;;;;;7.58;36.72;102030.33;117251;1188;21999;-61
2021/10/08 04:38:35;;;;;;;11.40;4.30;;;;;;;7.61;36.86;102032.85;117271;1185;23576;-61
2021/10/08 04:41:04;;;;;;;13.70;5.70;;;;;;;7.63;36.74;102028.38;117297;1182;24152;-61
2021/10/08 04:43:33;;;;;;;15.20;4.60;;;;;;;7.66;37.00;102031.25;117251;1185;23586;-60
2021/10/08 04:46:02;;;;;;;18.30;7.00;;;;;;;7.68;37.02;102030.96;117504;1186;23579;-59
2021/10/08 04:48:32;;;;;;;29.60;14.70;;;;;;;7.72;37.07;102026.16;117277;1186;22662;-60
2021/10/08 04:51:00;;;;;;;34.30;17.10;;;;;;;7.76;36.98;102028.89;117250;1183;23590;-60
2021/10/08 04:53:28;;;;;;;23.40;10.40;;;;;;;7.81;37.22;102027.59;117313;1186;23461;-60
2021/10/08 04:55:56;;;;;;;17.80;8.00;;;;;;;7.85;37.07;102027.88;117319;1189;21847;-61
2021/10/08 04:58:24;;;;;;;17.60;7.00;;;;;;;7.89;37.21;102023.44;117300;1185;23543;-61
2021/10/08 05:00:52;;;;;;;14.60;6.60;;;;;;;7.93;37.14;102024.06;117239;1185;23438;-62
2021/10/08 05:03:21;;;;;;;14.60;6.10;;;;;;;7.96;37.15;102025.36;117139;1181;22647;-61
2021/10/08 05:05:51;;;;;;;13.60;5.80;;;;;;;8.00;37.06;102028.61;117174;1181;23566;-60
2021/10/08 05:08:19;;;;;;;16.20;5.50;;;;;;;8.05;37.37;102027.86;117225;1181;22619;-60
2021/10/08 05:10:47;;;;;;;8.30;4.60;;;;;;;8.08;37.33;102033.36;117196;1182;23439;-58
2021/10/08 05:13:16;;;;;;;10.00;4.70;;;;;;;8.16;37.45;102030.75;117347;1182;22918;-61
2021/10/08 05:15:45;;;;;;;13.60;5.00;;;;;;;8.25;37.45;102028.16;118366;1175;23465;-60
2021/10/08 05:18:13;;;;;;;11.50;3.90;;;;;;;8.34;37.57;102023.30;118476;1182;23729;-59
2021/10/08 05:20:42;;;;;;;13.80;5.90;;;;;;;8.41;37.44;102027.48;117122;1182;21883;-60
2021/10/08 05:23:10;;;;;;;11.00;4.30;;;;;;;8.47;37.41;102022.73;117107;1182;23853;-59
2021/10/08 05:25:38;;;;;;;9.00;4.40;;;;;;;8.51;37.31;102027.05;117180;1181;23544;-59
2021/10/08 05:28:06;;;;;;;9.50;4.40;;;;;;;8.57;37.41;102028.23;117195;1181;21845;-60
2021/10/08 05:30:35;;;;;;;9.00;3.70;;;;;;;8.63;37.23;102027.64;117211;1185;23580;-59
2021/10/08 05:33:04;;;;;;;10.60;4.00;;;;;;;8.69;37.31;102023.77;117198;1182;21854;-60
2021/10/08 05:35:32;;;;;;;8.80;3.80;;;;;;;8.80;37.46;102029.05;117177;1186;24445;-60
2021/10/08 05:38:00;;;;;;;8.00;4.00;;;;;;;8.87;37.46;102026.77;117202;1180;23638;-59
2021/10/08 05:40:29;;;;;;;9.60;4.50;;;;;;;8.97;37.42;102021.21;117104;1181;22018;-59
2021/10/08 05:42:57;;;;;;;9.90;4.50;;;;;;;9.07;37.52;102023.69;117109;1180;21850;-59
2021/10/08 05:45:26;;;;;;;6.60;3.70;;;;;;;9.12;37.72;102026.05;117139;1182;23544;-59
2021/10/08 05:47:54;;;;;;;8.80;4.40;;;;;;;9.25;37.67;102024.38;117147;1182;21848;-58
2021/10/08 05:50:22;;;;;;;10.50;4.10;;;;;;;9.42;37.61;102020.86;117243;1182;21845;-59
2021/10/08 05:52:50;;;;;;;12.20;4.60;;;;;;;9.55;37.72;102017.25;117238;1181;23609;-59
2021/10/08 05:55:21;;;;;;;8.80;4.20;;;;;;;9.67;37.60;102017.80;117168;1181;22812;-60
2021/10/08 05:57:55;;;;;;;7.90;3.70;;;;;;;9.82;37.70;102021.56;117203;1180;21859;-60
2021/10/08 06:00:23;;;;;;;13.40;3.90;;;;;;;9.95;37.76;102023.73;117229;1181;23544;-59
2021/10/08 06:02:52;;;;;;;8.10;3.60;;;;;;;10.16;37.96;102020.54;117200;1181;22466;-60
2021/10/08 06:05:20;;;;;;;8.80;4.20;;;;;;;10.35;37.94;102020.66;117180;1181;24431;-60
2021/10/08 06:07:48;;;;;;;6.50;3.60;;;;;;;10.52;37.96;102019.34;117137;1181;23566;-59
2021/10/08 06:10:16;;;;;;;9.80;4.00;;;;;;;10.65;38.02;102018.83;117149;1181;21867;-61
2021/10/08 06:12:45;;;;;;;17.80;4.50;;;;;;;10.83;37.93;102012.05;117241;1182;22237;-61
2021/10/08 06:15:13;;;;;;;8.80;3.50;;;;;;;10.96;37.90;102010.45;117164;1181;21939;-60
2021/10/08 06:17:42;;;;;;;10.50;3.80;;;;;;;11.07;37.84;102011.27;117248;1182;23563;-60
2021/10/08 06:20:10;;;;;;;10.50;3.70;;;;;;;11.17;37.81;102015.61;117191;1189;22310;-60
2021/10/08 06:22:40;;;;;;;6.50;3.70;;;;;;;11.25;37.86;102017.81;117298;1182;21857;-59
2021/10/08 06:25:09;;;;;;;10.80;3.20;;;;;;;11.35;37.82;102011.94;117260;1185;23463;-60
2021/10/08 06:27:39;;;;;;;7.10;3.80;;;;;;;11.50;37.92;102005.59;117364;1186;21857;-59
2021/10/08 06:30:08;;;;;;;10.40;4.10;;;;;;;11.64;37.87;102007.31;117302;1186;21854;-59
2021/10/08 06:32:36;;;;;;;11.40;3.90;;;;;;;11.77;37.86;102003.02;117177;1182;23429;-59
2021/10/08 06:35:05;;;;;;;11.50;4.30;;;;;;;11.89;37.87;102003.66;117226;1182;23541;-59
2021/10/08 06:37:33;;;;;;;10.20;4.30;;;;;;;12.01;37.78;102006.94;118485;1182;21866;-58
2021/10/08 06:40:02;;;;;;;10.50;4.00;;;;;;;12.13;37.88;102003.17;117252;1185;23596;-61
2021/10/08 06:42:30;;;;;;;9.70;4.60;;;;;;;12.21;37.75;102002.35;117273;1183;22920;-61
2021/10/08 06:44:58;;;;;;;11.00;4.10;;;;;;;12.30;37.83;102000.83;117207;1186;23645;-60
2021/10/08 06:47:27;;;;;;;7.70;4.20;;;;;;;12.44;37.77;102002.84;117210;1181;23544;-60
2021/10/08 06:49:55;;;;;;;7.80;3.70;;;;;;;12.63;37.92;101995.36;117236;1185;23547;-60
2021/10/08 06:52:24;;;;;;;9.30;3.60;;;;;;;12.84;37.88;101996.34;117278;1184;23560;-61
2021/10/08 06:54:52;;;;;;;15.80;4.20;;;;;;;13.08;37.92;101996.61;117216;1182;23568;-60
2021/10/08 06:57:20;;;;;;;8.60;3.90;;;;;;;13.37;38.12;101997.40;117251;1182;23544;-59
2021/10/08 06:59:48;;;;;;;12.70;3.80;;;;;;;13.73;38.22;101995.88;117151;1182;21884;-59
2021/10/08 07:02:17;;;;;;;10.90;4.10;;;;;;;14.05;38.16;101992.16;117116;1182;22911;-60
2021/10/08 07:04:45;;;;;;;7.40;3.60;;;;;;;14.36;38.07;101985.05;117197;1183;24149;-60
2021/10/08 07:07:13;;;;;;;7.30;4.00;;;;;;;14.66;38.10;101983.73;117279;1182;23563;-62
2021/10/08 07:09:43;;;;;;;15.00;4.20;;;;;;;14.86;37.90;101987.39;117306;1185;22621;-60
2021/10/08 07:12:12;;;;;;;8.40;3.70;;;;;;;14.98;37.83;101984.15;117317;1186;21866;-60
2021/10/08 07:14:40;;;;;;;9.80;4.00;;;;;;;15.12;37.77;101986.02;117176;1186;21871;-61
2021/10/08 07:17:08;;;;;;;13.60;4.30;;;;;;;15.21;37.68;101978.36;117289;1185;21858;-61
2021/10/08 07:19:36;;;;;;;10.50;4.90;;;;;;;15.28;37.57;101976.89;117250;1185;21856;-60
2021/10/08 07:22:05;;;;;;;11.00;4.10;;;;;;;15.34;37.44;101974.55;117269;1185;21864;-60
2021/10/08 07:24:33;;;;;;;8.20;3.70;;;;;;;15.41;37.42;101977.35;117358;1185;23528;-61
2021/10/08 07:27:03;;;;;;;13.40;4.30;;;;;;;15.43;37.43;101974.15;117342;1182;23449;-60
2021/10/08 07:29:32;;;;;;;10.80;3.80;;;;;;;15.47;37.37;101976.41;117155;1189;23461;-61
2021/10/08 07:32:01;;;;;;;11.30;4.20;;;;;;;15.57;37.33;101971.21;117261;1186;21848;-59
2021/10/08 07:34:31;;;;;;;10.10;4.30;;;;;;;15.74;37.38;101966.84;117260;1186;23544;-60
2021/10/08 07:36:59;;;;;;;11.10;4.20;;;;;;;15.93;37.42;101969.36;117203;1185;22934;-60
2021/10/08 07:39:28;;;;;;;9.40;3.90;;;;;;;16.12;37.41;101966.16;117338;1186;21857;-59
2021/10/08 07:41:56;;;;;;;8.90;3.70;;;;;;;16.31;37.41;101968.27;117245;1186;21870;-59
2021/10/08 07:44:24;;;;;;;7.60;3.60;;;;;;;16.46;37.20;101973.23;117273;1186;23545;-60
2021/10/08 07:46:53;;;;;;;12.00;3.70;;;;;;;16.57;37.10;101969.40;117228;1182;23438;-58
2021/10/08 07:49:21;;;;;;;7.60;3.80;;;;;;;16.68;36.97;101971.73;117312;1184;23547;-60
2021/10/08 07:51:50;;;;;;;10.20;3.70;;;;;;;16.78;36.84;101973.73;117257;1185;22822;-60
2021/10/08 07:54:18;;;;;;;12.00;4.00;;;;;;;16.83;36.87;101975.45;117249;1186;23441;-60
2021/10/08 07:56:46;;;;;;;8.30;3.90;;;;;;;16.85;36.76;101977.73;117256;1186;23920;-60
2021/10/08 07:59:14;;;;;;;11.50;3.70;;;;;;;16.84;36.48;101979.88;117323;1185;23576;-60
2021/10/08 08:01:42;;;;;;;9.20;3.80;;;;;;;16.78;36.50;101978.88;117263;1185;23599;-60
2021/10/08 08:04:12;;;;;;;10.70;3.90;;;;;;;16.73;36.42;101986.58;117287;1183;23539;-60
2021/10/08 08:06:40;;;;;;;11.10;3.80;;;;;;;16.71;36.38;101986.95;117368;1185;22917;-60
2021/10/08 08:09:08;;;;;;;11.90;4.00;;;;;;;16.72;36.36;101983.40;117389;1183;23807;-59
2021/10/08 08:11:36;;;;;;;12.00;4.60;;;;;;;16.71;36.29;101979.50;117246;1182;21857;-60
2021/10/08 08:14:09;;;;;;;7.40;3.90;;;;;;;16.72;36.19;101977.90;117292;1186;23544;-60
2021/10/08 08:16:37;;;;;;;13.10;3.70;;;;;;;16.77;36.19;101974.27;117239;1186;23442;-60
2021/10/08 08:19:06;;;;;;;10.40;4.20;;;;;;;16.78;36.13;101970.54;117265;1185;23899;-59
2021/10/08 08:21:34;;;;;;;8.90;3.70;;;;;;;16.79;36.18;101967.86;117323;1189;21886;-59
2021/10/08 08:24:02;;;;;;;8.30;4.10;;;;;;;16.84;36.23;101964.61;117314;1185;23465;-60
2021/10/08 08:26:33;;;;;;;7.00;3.30;;;;;;;16.90;36.34;101969.15;117333;1182;23602;-60
2021/10/08 08:29:03;;;;;;;12.80;4.10;;;;;;;17.04;36.33;101972.37;117300;1183;23466;-60
2021/10/08 08:31:31;;;;;;;8.10;4.10;;;;;;;17.17;36.24;101977.16;117349;1185;21875;-60
2021/10/08 08:34:00;;;;;;;10.50;3.50;;;;;;;17.26;36.33;101979.50;117310;1182;22610;-60
2021/10/08 08:36:31;;;;;;;7.30;3.60;;;;;;;17.42;36.38;101984.06;117309;1186;21880;-61
2021/10/08 08:39:04;;;;;;;7.90;3.60;;;;;;;17.59;36.23;101985.75;117389;1185;23570;-61
2021/10/08 08:41:32;;;;;;;12.20;3.60;;;;;;;17.73;36.09;101988.71;117252;1186;22805;-59
2021/10/08 08:44:02;;;;;;;11.50;3.80;;;;;;;17.84;36.02;101981.27;117351;1189;21845;-60
2021/10/08 08:46:30;;;;;;;11.90;3.40;;;;;;;17.94;35.94;101981.96;117341;1185;21845;-60
2021/10/08 08:48:59;;;;;;;11.50;3.50;;;;;;;18.01;35.93;101976.01;117288;1188;21855;-60
2021/10/08 08:51:28;;;;;;;9.00;3.50;;;;;;;18.06;35.83;101974.52;117369;1182;23568;-60
2021/10/08 08:54:01;;;;;;;8.20;4.00;;;;;;;18.07;35.66;101972.72;117370;1186;21961;-60
2021/10/08 08:56:30;;;;;;;7.50;3.60;;;;;;;18.10;35.76;101968.75;117291;1186;21847;-61
2021/10/08 08:59:09;;;;;;;13.00;3.70;;;;;;;18.16;35.80;101964.89;117296;1183;21872;-60
2021/10/08 09:01:59;;;;;;;16.40;4.40;;;;;;;18.25;35.76;101968.65;117300;1182;22983;-60
2021/10/08 09:04:33;;;;;;;10.90;4.00;;;;;;;18.38;35.77;101965.73;117250;1186;23551;-60
2021/10/08 09:07:01;;;;;;;12.10;4.00;;;;;;;18.47;35.78;101963.06;117365;1185;24013;-60
2021/10/08 09:09:30;;;;;;;14.90;4.00;;;;;;;18.58;35.73;101958.59;117447;1182;22917;-59
2021/10/08 09:12:01;;;;;;;11.10;3.70;;;;;;;18.76;35.79;101953.40;117158;1181;23544;-60
2021/10/08 09:14:32;;;;;;;11.00;4.80;;;;;;;18.99;35.80;101947.57;117306;1183;23569;-61
2021/10/08 09:17:09;;;;;;;11.00;3.30;;;;;;;19.24;35.76;101943.29;117307;1185;23566;-60
2021/10/08 09:20:06;;;;;;;14.20;3.60;;;;;;;19.43;35.73;101937.84;117292;1186;21857;-60
2021/10/08 09:22:40;;;;;;;8.30;3.20;;;;;;;19.59;35.76;101939.77;117135;1186;22812;-60
2021/10/08 09:25:17;;;;;;;16.20;4.00;;;;;;;19.80;35.79;101935.48;117297;1182;23556;-60
2021/10/08 09:27:53;;;;;;;9.90;3.70;;;;;;;20.02;35.74;101935.66;117283;1186;21865;-60
2021/10/08 09:30:26;;;;;;;12.00;3.70;;;;;;;20.20;35.64;101931.42;117238;1183;21848;-62
2021/10/08 09:32:55;;;;;;;12.60;3.60;;;;;;;20.33;35.47;101928.90;117284;1186;21912;-60
2021/10/08 09:35:24;;;;;;;11.30;3.30;;;;;;;20.43;35.48;101929.17;117315;1185;23441;-60
2021/10/08 09:37:59;;;;;;;9.50;3.30;;;;;;;20.54;35.46;101933.14;117267;1186;21859;-60
2021/10/08 09:40:35;;;;;;;11.30;4.10;;;;;;;20.67;35.40;101930.59;117449;1182;21877;-61
2021/10/08 09:43:06;;;;;;;15.40;3.80;;;;;;;20.83;35.36;101926.61;117287;1186;23557;-60
2021/10/08 09:45:36;;;;;;;13.70;3.30;;;;;;;20.92;35.29;101923.80;117230;1182;23445;-60
2021/10/08 09:48:05;;;;;;;13.50;3.80;;;;;;;20.98;35.19;101925.05;117149;1182;23531;-60
2021/10/08 09:50:34;;;;;;;12.10;3.10;;;;;;;21.06;35.10;101920.88;117202;1182;22624;-60
2021/10/08 09:53:13;;;;;;;8.40;3.30;;;;;;;21.12;34.98;101911.94;117302;1185;21858;-60
2021/10/08 09:55:42;;;;;;;15.20;3.70;;;;;;;21.19;34.99;101917.62;117314;1182;22654;-61
2021/10/08 09:58:10;;;;;;;17.20;4.30;;;;;;;21.20;34.93;101912.91;117296;1185;23445;-59
2021/10/08 10:00:47;;;;;;;13.40;3.30;;;;;;;21.24;34.95;101907.96;117280;1183;22806;-61
2021/10/08 10:03:16;;;;;;;12.00;4.00;;;;;;;21.38;34.99;101907.33;117268;1182;21854;-61
2021/10/08 10:05:45;;;;;;;15.30;3.50;;;;;;;21.50;34.86;101902.83;117281;1182;23465;-60
2021/10/08 10:08:14;;;;;;;16.70;3.50;;;;;;;21.56;34.66;101895.15;117273;1183;22918;-61
2021/10/08 10:10:42;;;;;;;12.60;3.70;;;;;;;21.62;34.63;101896.02;117308;1185;22649;-61
2021/10/08 10:13:11;;;;;;;15.90;3.80;;;;;;;21.66;34.56;101891.41;117340;1185;22991;-63
2021/10/08 10:15:40;;;;;;;13.40;3.60;;;;;;;21.68;34.53;101896.89;117299;1186;24139;-60
2021/10/08 10:18:10;;;;;;;13.30;3.50;;;;;;;21.70;34.53;101896.64;117271;1185;23573;-61
2021/10/08 10:20:39;;;;;;;16.40;3.40;;;;;;;21.76;34.60;101894.31;117337;1179;24166;-62
2021/10/08 10:23:08;;;;;;;13.70;3.90;;;;;;;21.81;34.52;101893.21;117292;1185;23468;-62
2021/10/08 10:25:36;;;;;;;15.20;4.00;;;;;;;21.84;34.30;101890.77;117304;1183;22926;-62
2021/10/08 10:28:05;;;;;;;14.90;3.80;;;;;;;21.82;34.21;101890.50;117354;1182;21856;-62
2021/10/08 10:30:34;;;;;;;17.00;4.20;;;;;;;21.79;34.16;101889.90;117324;1185;23442;-61
2021/10/08 10:33:03;;;;;;;13.30;3.30;;;;;;;21.80;34.31;101889.69;117226;1184;22627;-60
2021/10/08 10:35:40;;;;;;;14.50;3.40;;;;;;;21.85;34.29;101882.20;117265;1186;23560;-61
2021/10/08 10:38:22;;;;;;;16.80;3.90;;;;;;;21.87;34.22;101882.65;117379;1182;23569;-60
2021/10/08 10:41:08;;;;;;;19.70;4.20;;;;;;;21.83;34.08;101878.33;117337;1183;21912;-62
2021/10/08 10:43:45;;;;;;;15.00;4.00;;;;;;;21.76;34.00;101878.06;117309;1183;23833;-61
2021/10/08 10:51:56;;;;;;;33.90;5.60;;;;;;;21.40;33.70;101878.90;117264;1185;22970;-60
2021/10/08 10:54:37;;;;;;;30.20;4.80;;;;;;;21.32;33.66;101880.95;117313;1186;22118;-61
2021/10/08 10:57:10;;;;;;;77.60;9.70;;;;;;;21.27;33.67;101881.64;117348;1185;21860;-60
2021/10/08 10:59:40;;;;;;;13.30;3.60;;;;;;;21.25;33.71;101882.95;117309;1188;21857;-61
2021/10/08 11:02:09;;;;;;;16.00;3.40;;;;;;;21.31;33.82;101882.05;117326;1188;22005;-62
2021/10/08 11:04:49;;;;;;;11.50;3.50;;;;;;;21.43;33.72;101871.11;117371;1182;23554;-62
2021/10/08 11:07:22;;;;;;;14.00;3.50;;;;;;;21.50;33.62;101865.14;117287;1185;24160;-62
2021/10/08 11:09:56;;;;;;;28.50;4.20;;;;;;;21.51;33.64;101860.64;117302;1188;22114;-61
2021/10/08 11:12:42;;;;;;;23.70;4.10;;;;;;;21.56;33.59;101860.34;117349;1184;23806;-62
2021/10/08 11:15:19;;;;;;;13.50;2.80;;;;;;;21.61;33.56;101862.46;118787;1182;22810;-63
2021/10/08 11:17:55;;;;;;;14.90;3.40;;;;;;;21.61;33.51;101859.79;117330;1185;23611;-60
2021/10/08 11:20:36;;;;;;;15.00;3.50;;;;;;;21.63;33.48;101861.73;117325;1182;21855;-61
2021/10/08 11:23:07;;;;;;;18.10;3.40;;;;;;;21.62;33.49;101858.52;117133;1186;22815;-62
2021/10/08 11:25:46;;;;;;;17.60;3.50;;;;;;;21.58;33.42;101853.98;117391;1183;21853;-62
2021/10/08 11:28:15;;;;;;;12.70;3.30;;;;;;;21.53;33.44;101854.52;117349;1182;23913;-62
2021/10/08 11:30:48;;;;;;;22.70;4.30;;;;;;;21.50;33.35;101849.63;117343;1182;23638;-60
2021/10/08 11:33:16;;;;;;;75.90;8.50;;;;;;;21.46;33.31;101859.05;117295;1183;23468;-61